< < Back
Terminal Aerodrome Forecast


Current Version              Previous Versions:   1  2  3  4  5  6  7  8  9  

Terminal Aerodrome Forecast

761
FTUS44 KOHX 162300
TAFBNA
TAF
KBNA 162320Z 1700/1724 13004KT P6SM BKN250
     FM171400 17011KT P6SM SCT040 BKN250=



Latest METAR

993
SAUS70 KWBC 170056
MTRBNA
METAR KBNA 170053Z 05006KT 10SM SCT250 11/M01 A3017 RMK AO2 SLP219
T01111011


USA.gov is the U.S. government's official web portal to all federal, state and local government web resources and services.